Weather at Hector International Airport

Public forecast

Using degrees Fahrenheit for public forecast. Weather courtesy of forecast.io.

Current aviation weather report (METAR) for Hector International Airport

Report is more than 6 hours old.

2022/11/14 14:53 (retrieved 2 years ago)

KFAR 141453Z 08007KT 10SM BKN031 OVC080 M07/M08 A3020 RMK AO2 SLP243 60001 T10671083 55002

Aviation forecast (TAF) for Hector International Airport

Forecast is more than 12 hours old.

2023/02/22 18:36 (retrieved 1 year ago)

TAF KFAR 221733Z 2218/2318 01015G24KT 3SM BR BKN150 FM230300 02021G29KT 3SM -SN BLSN OVC030 FM230500 02021G30KT 1/2SM SN BLSN OVC015 FM231400 36018G26KT 1SM -SN BLSN OVC010 FM231600 36018G26KT 4SM BLSN OVC010